Latest Weather Observations for North Head

IDN60801

Issued at 2:52 am EDT Thursday 15 November 2018 (issued every 10 minutes, with the page automatically refreshed every 10 minutes)

About weather observations | Map of weather stations | Latest weather observations for NSW | Other Formats
Station Details ID: 066197 Name: NORTH HEAD Lat: -33.82 Lon: 151.30 Height: 90.0 m
Data from the previous 72 hours. | See also: Recent months for locations in New South Wales
Date/Time
EDT
Temp
°C
App
Temp
°C
Dew
Point
°C
Rel
Hum
%
Delta-T
°C
Wind Press
QNH
hPa
Press
MSL
hPa
Rain since
9am
mm
Dir  Spd
km/h
Gust
km/h
Spd
kts
Gust
kts
15/02:30am - - - - - W 11 15 6 8 - - -
15/02:00am - - - - - WNW 11 13 6 7 - - -
15/01:30am - - - - - WNW 11 13 6 7 - - -
15/01:00am - - - - - NW 9 11 5 6 - - -
15/12:30am - - - - - NNW 11 15 6 8 - - -
15/12:00am - - - - - N 13 17 7 9 - - -
 
Date/Time
EDT
Temp
°C
App
Temp
°C
Dew
Point
°C
Rel
Hum
%
Delta-T
°C
Wind Press
QNH
hPa
Press
MSL
hPa
Rain since
9am
mm
Dir  Spd
km/h
Gust
km/h
Spd
kts
Gust
kts
14/11:30pm - - - - - N 13 17 7 9 - - -
14/11:00pm - - - - - N 15 20 8 11 - - -
14/10:30pm - - - - - N 15 20 8 11 - - -
14/10:00pm - - - - - N 13 19 7 10 - - -
14/09:30pm - - - - - N 15 19 8 10 - - -
14/09:00pm - - - - - N 15 20 8 11 - - -
14/08:30pm - - - - - N 13 17 7 9 - - -
14/08:00pm - - - - - NNE 17 20 9 11 - - -
14/07:30pm - - - - - NNE 17 20 9 11 - - -
14/07:00pm - - - - - NNE 15 20 8 11 - - -
14/06:30pm - - - - - NNE 17 24 9 13 - - -
14/06:00pm - - - - - NNE 17 24 9 13 - - -
14/05:30pm - - - - - NNE 15 20 8 11 - - -
14/05:00pm - - - - - NNE 13 19 7 10 - - -
14/04:30pm - - - - - NNE 11 15 6 8 - - -
14/04:00pm - - - - - N 9 13 5 7 - - -
14/03:30pm - - - - - NNE 13 19 7 10 - - -
14/03:00pm - - - - - NE 11 20 6 11 - - -
14/02:30pm - - - - - NE 9 13 5 7 - - -
14/02:00pm - - - - - NNE 13 19 7 10 - - -
14/01:30pm - - - - - ENE 7 13 4 7 - - -
14/01:00pm - - - - - SSW 2 4 1 2 - - -
14/12:30pm - - - - - E 6 9 3 5 - - -
14/12:00pm - - - - - N 2 4 1 2 - - -
14/11:30am - - - - - N 7 11 4 6 - - -
14/11:00am - - - - - NE 7 13 4 7 - - -
14/10:30am - - - - - E 6 7 3 4 - - -
14/10:00am - - - - - NNE 6 9 3 5 - - -
14/09:30am - - - - - NNE 4 6 2 3 - - -
14/09:00am - - - - - NNE 4 6 2 3 - - -
14/08:30am - - - - - N 2 4 1 2 - - -
14/08:00am - - - - - N 7 11 4 6 - - -
14/07:30am - - - - - NNE 9 13 5 7 - - -
14/07:00am - - - - - NNE 9 15 5 8 - - -
14/06:30am - - - - - NNE 9 15 5 8 - - -
14/06:00am - - - - - NNE 11 15 6 8 - - -
14/05:30am - - - - - NE 15 20 8 11 - - -
14/05:00am - - - - - NNE 17 26 9 14 - - -
14/04:30am - - - - - NNE 19 26 10 14 - - -
14/04:00am - - - - - NE 20 30 11 16 - - -
14/03:30am - - - - - NNE 19 24 10 13 - - -
14/03:00am - - - - - NNE 15 22 8 12 - - -
14/02:30am - - - - - NNE 15 22 8 12 - - -
14/02:00am - - - - - NNE 17 28 9 15 - - -
14/01:30am - - - - - NNE 19 28 10 15 - - -
14/01:00am - - - - - NNE 19 28 10 15 - - -
14/12:30am - - - - - NNE 22 35 12 19 - - -
14/12:00am - - - - - NNE 22 37 12 20 - - -
 
Date/Time
EDT
Temp
°C
App
Temp
°C
Dew
Point
°C
Rel
Hum
%
Delta-T
°C
Wind Press
QNH
hPa
Press
MSL
hPa
Rain since
9am
mm
Dir  Spd
km/h
Gust
km/h
Spd
kts
Gust
kts
13/11:30pm - - - - - NNE 24 39 13 21 - - -
13/11:00pm - - - - - NNE 26 37 14 20 - - -
13/10:30pm - - - - - NE 28 43 15 23 - - -
13/10:00pm - - - - - NE 28 43 15 23 - - -
13/09:35pm - - - - - NNE 28 46 15 25 - - -
13/09:30pm - - - - - NNE 28 44 15 24 - - -
13/09:00pm - - - - - NNE 26 41 14 22 - - -
13/08:30pm - - - - - NE 28 46 15 25 - - -
13/08:00pm - - - - - NE 26 43 14 23 - - -
13/07:30pm - - - - - NE 28 39 15 21 - - -
13/07:00pm - - - - - NNE 26 39 14 21 - - -
13/06:30pm - - - - - NE 24 37 13 20 - - -
13/06:00pm - - - - - NE 22 35 12 19 - - -
13/05:30pm - - - - - NE 22 39 12 21 - - -
13/05:00pm - - - - - NE 24 37 13 20 - - -
13/04:30pm - - - - - NE 24 35 13 19 - - -
13/04:00pm - - - - - NE 20 32 11 17 - - -
13/03:30pm - - - - - NE 22 39 12 21 - - -
13/03:00pm - - - - - NE 22 37 12 20 - - -
13/02:30pm - - - - - NE 22 39 12 21 - - -
13/02:00pm - - - - - NE 20 33 11 18 - - -
13/01:30pm - - - - - NE 22 35 12 19 - - -
13/01:00pm - - - - - NE 20 33 11 18 - - -
13/12:30pm - - - - - NE 19 33 10 18 - - -
13/12:00pm - - - - - NE 22 37 12 20 - - -
13/11:30am - - - - - NE 24 35 13 19 - - -
13/11:00am - - - - - NE 20 33 11 18 - - -
13/10:30am - - - - - NE 22 35 12 19 - - -
13/10:00am - - - - - NE 20 33 11 18 - - -
13/09:30am - - - - - NNE 19 30 10 16 - - -
13/09:00am - - - - - NNE 19 28 10 15 - - -
13/08:30am - - - - - NNE 19 30 10 16 - - -
13/08:00am - - - - - NNE 19 28 10 15 - - -
13/07:30am - - - - - NNE 20 30 11 16 - - -
13/07:00am - - - - - NNE 19 32 10 17 - - -
13/06:30am - - - - - NE 20 32 11 17 - - -
13/06:00am - - - - - NNE 17 26 9 14 - - -
13/05:30am - - - - - NNE 13 24 7 13 - - -
13/05:00am - - - - - NNE 13 17 7 9 - - -
13/04:30am - - - - - NNE 13 20 7 11 - - -
13/04:00am - - - - - NNE 13 22 7 12 - - -
13/03:30am - - - - - NNE 15 22 8 12 - - -
13/03:00am - - - - - NNE 19 28 10 15 - - -
13/02:30am - - - - - NNE 15 24 8 13 - - -
13/02:00am - - - - - NNE 17 28 9 15 - - -
13/01:30am - - - - - N 9 13 5 7 - - -
13/01:00am - - - - - NNE 17 30 9 16 - - -
13/12:30am - - - - - NNE 17 30 9 16 - - -
13/12:00am - - - - - NNE 17 26 9 14 - - -
 
Date/Time
EDT
Temp
°C
App
Temp
°C
Dew
Point
°C
Rel
Hum
%
Delta-T
°C
Wind Press
QNH
hPa
Press
MSL
hPa
Rain since
9am
mm
Dir  Spd
km/h
Gust
km/h
Spd
kts
Gust
kts
12/11:30pm - - - - - NNE 17 26 9 14 - - -
12/11:00pm - - - - - NE 19 26 10 14 - - -
12/10:30pm - - - - - NE 19 26 10 14 - - -
12/10:00pm - - - - - NE 20 28 11 15 - - -
12/09:30pm - - - - - NE 20 30 11 16 - - -
12/09:00pm - - - - - NE 17 24 9 13 - - -
12/08:30pm - - - - - NE 15 24 8 13 - - -
12/08:00pm - - - - - NE 17 24 9 13 - - -
12/07:30pm - - - - - NE 15 20 8 11 - - -
12/07:00pm - - - - - ENE 15 24 8 13 - - -
12/06:30pm - - - - - ENE 15 22 8 12 - - -
12/06:00pm - - - - - ENE 15 24 8 13 - - -
12/05:30pm - - - - - ENE 15 22 8 12 - - -
12/05:00pm - - - - - ENE 15 24 8 13 - - -
12/04:30pm - - - - - ENE 17 28 9 15 - - -
12/04:00pm - - - - - ENE 15 24 8 13 - - -
12/03:30pm - - - - - ENE 15 22 8 12 - - -
12/03:00pm - - - - - ENE 15 22 8 12 - - -
12/02:30pm - - - - - E 15 22 8 12 - - -
12/02:00pm - - - - - E 13 22 7 12 - - -
12/01:30pm - - - - - ENE 15 22 8 12 - - -
12/01:00pm - - - - - E 15 22 8 12 - - -
12/12:30pm - - - - - E 13 20 7 11 - - -
12/12:00pm - - - - - E 11 19 6 10 - - -
12/11:30am - - - - - E 11 17 6 9 - - -
12/11:00am - - - - - E 11 17 6 9 - - -
12/10:30am - - - - - E 11 15 6 8 - - -
12/10:00am - - - - - E 9 13 5 7 - - -
12/09:30am - - - - - ESE 6 11 3 6 - - -
12/09:00am - - - - - SSE 6 7 3 4 - - -
12/08:30am - - - - - SSE 6 7 3 4 - - -
12/08:00am - - - - - SSE 7 11 4 6 - - -
12/07:30am - - - - - SSW 6 7 3 4 - - -
12/07:00am - - - - - WSW 4 9 2 5 - - -
12/06:30am - - - - - SW 6 7 3 4 - - -
12/06:00am - - - - - WSW 6 6 3 3 - - -
12/05:30am - - - - - SW 6 7 3 4 - - -
12/05:00am - - - - - SW 4 6 2 3 - - -
12/04:30am - - - - - SSW 6 6 3 3 - - -
12/04:00am - - - - - ESE 6 11 3 6 - - -
12/03:30am - - - - - E 4 7 2 4 - - -
12/03:00am - - - - - ENE 4 7 2 4 - - -

Other Formats:

Comma delimited format used in spreadsheet applications
http://www.bom.gov.au/fwo/IDN60801/IDN60801.95768.axf

JavaScript Object Notation format (JSON) in row-major order
http://www.bom.gov.au/fwo/IDN60801/IDN60801.95768.json